Terminal Aerodrome Forecast
Issued by NWS Mt. Holly, NJ

Home | Current Version | Previous Version | Text Only | Print | Product List | Glossary On
Versions: 1 2 3 4 5 6 7 8 9 10 11 12 13 14 15 16 17 18 19 20 21 22 23 24 25
064
FTUS41 KPHI 221730
TAFABE
TAF
KABE 221730Z 2218/2318 36003KT 1SM BR OVC003
     FM222200 04007KT 1SM -RADZ BR OVC002
     FM230500 05015G20KT 1SM -RADZ BR OVC002
     FM230900 06018G28KT 1SM -RADZ BR OVC004
     FM231400 06022G35KT 3SM RA BR OVC004=

USA.gov is the U.S. government's official web portal to all federal, state and local government web resources and services.